sensor_id;sensor_type;location;lat;lon;timestamp;pressure;altitude;pressure_sealevel;temperature;humidity
13836;BME280;6988;52.614;13.500;2023-02-28T00:03:27;54949.47;;;-143.77;74.91
13836;BME280;6988;52.614;13.500;2023-02-28T00:08:19;54970.00;;;-143.77;75.27
13836;BME280;6988;52.614;13.500;2023-02-28T00:13:11;54935.09;;;-143.77;75.10
13836;BME280;6988;52.614;13.500;2023-02-28T00:18:03;54994.63;;;-143.77;74.92
13836;BME280;6988;52.614;13.500;2023-02-28T00:22:57;54976.16;;;-143.77;74.35
13836;BME280;6988;52.614;13.500;2023-02-28T00:27:49;54951.53;;;-143.77;74.52
13836;BME280;6988;52.614;13.500;2023-02-28T00:32:41;54951.53;;;-143.77;74.85
13836;BME280;6988;52.614;13.500;2023-02-28T00:37:34;54965.88;;;-143.77;75.21
13836;BME280;6988;52.614;13.500;2023-02-28T00:42:27;54994.63;;;-143.77;75.15
13836;BME280;6988;52.614;13.500;2023-02-28T00:47:18;54988.47;;;-143.77;75.05
13836;BME280;6988;52.614;13.500;2023-02-28T00:52:11;54947.41;;;-143.77;75.70
13836;BME280;6988;52.614;13.500;2023-02-28T00:57:02;54947.41;;;-143.77;75.54
13836;BME280;6988;52.614;13.500;2023-02-28T01:01:58;54980.25;;;-143.77;75.77
13836;BME280;6988;52.614;13.500;2023-02-28T01:06:49;54957.69;;;-143.77;75.78
13836;BME280;6988;52.614;13.500;2023-02-28T01:11:42;54988.47;;;-143.77;75.64
13836;BME280;6988;52.614;13.500;2023-02-28T01:16:34;54935.09;;;-143.77;75.87
13836;BME280;6988;52.614;13.500;2023-02-28T01:21:28;55002.81;;;-143.77;75.98
13836;BME280;6988;52.614;13.500;2023-02-28T01:26:22;54988.47;;;-143.77;76.58
13836;BME280;6988;52.614;13.500;2023-02-28T01:31:15;54967.94;;;-143.77;76.18
13836;BME280;6988;52.614;13.500;2023-02-28T01:36:11;54980.25;;;-143.77;75.99
13836;BME280;6988;52.614;13.500;2023-02-28T01:41:06;54982.31;;;-143.77;75.75
13836;BME280;6988;52.614;13.500;2023-02-28T01:45:59;54980.25;;;-143.77;75.64
13836;BME280;6988;52.614;13.500;2023-02-28T01:50:51;54939.22;;;-143.77;75.86
13836;BME280;6988;52.614;13.500;2023-02-28T01:55:48;54967.94;;;-143.77;75.40
13836;BME280;6988;52.614;13.500;2023-02-28T02:00:44;54996.66;;;-143.77;75.52
13836;BME280;6988;52.614;13.500;2023-02-28T02:05:39;54980.25;;;-143.77;75.59
13836;BME280;6988;52.614;13.500;2023-02-28T02:10:36;54986.41;;;-143.77;75.25
13836;BME280;6988;52.614;13.500;2023-02-28T02:15:39;54961.78;;;-143.77;75.08
13836;BME280;6988;52.614;13.500;2023-02-28T02:26:35;54967.94;;;-143.77;75.44
13836;BME280;6988;52.614;13.500;2023-02-28T02:37:15;54992.56;;;-143.77;75.62
13836;BME280;6988;52.614;13.500;2023-02-28T02:42:15;55023.34;;;-143.77;75.46
13836;BME280;6988;52.614;13.500;2023-02-28T02:47:14;54988.47;;;-143.77;75.70
13836;BME280;6988;52.614;13.500;2023-02-28T02:52:13;54996.66;;;-143.77;75.84
13836;BME280;6988;52.614;13.500;2023-02-28T02:57:11;54972.03;;;-143.77;75.41
13836;BME280;6988;52.614;13.500;2023-02-28T03:02:09;54990.50;;;-143.77;75.42
13836;BME280;6988;52.614;13.500;2023-02-28T03:07:02;55021.28;;;-143.77;75.66
13836;BME280;6988;52.614;13.500;2023-02-28T03:11:56;55021.28;;;-143.77;75.83
13836;BME280;6988;52.614;13.500;2023-02-28T03:17:00;55000.78;;;-143.77;76.17
13836;BME280;6988;52.614;13.500;2023-02-28T03:22:14;55006.94;;;-143.77;76.04
13836;BME280;6988;52.614;13.500;2023-02-28T03:27:16;55029.50;;;-143.77;76.04
13836;BME280;6988;52.614;13.500;2023-02-28T03:32:17;54992.56;;;-143.77;75.93
13836;BME280;6988;52.614;13.500;2023-02-28T03:37:18;55017.19;;;-143.77;76.35
13836;BME280;6988;52.614;13.500;2023-02-28T03:42:16;55027.44;;;-143.77;75.97
13836;BME280;6988;52.614;13.500;2023-02-28T03:47:13;54992.56;;;-143.77;76.18
13836;BME280;6988;52.614;13.500;2023-02-28T03:52:07;55015.13;;;-143.77;76.26
13836;BME280;6988;52.614;13.500;2023-02-28T03:57:07;54988.47;;;-143.77;76.30
13836;BME280;6988;52.614;13.500;2023-02-28T04:02:03;54996.66;;;-143.77;76.37
13836;BME280;6988;52.614;13.500;2023-02-28T04:07:03;55000.78;;;-143.77;76.52
13836;BME280;6988;52.614;13.500;2023-02-28T04:11:55;55000.78;;;-143.77;76.41
13836;BME280;6988;52.614;13.500;2023-02-28T04:16:47;55002.81;;;-143.77;76.36
13836;BME280;6988;52.614;13.500;2023-02-28T04:21:43;55029.50;;;-143.77;76.02
13836;BME280;6988;52.614;13.500;2023-02-28T04:26:36;55031.56;;;-143.77;76.25
13836;BME280;6988;52.614;13.500;2023-02-28T04:31:28;55017.19;;;-143.77;76.34
13836;BME280;6988;52.614;13.500;2023-02-28T04:36:20;55011.03;;;-143.77;76.44
13836;BME280;6988;52.614;13.500;2023-02-28T04:41:15;55011.03;;;-143.77;76.32
13836;BME280;6988;52.614;13.500;2023-02-28T04:46:08;55029.50;;;-143.77;76.24
13836;BME280;6988;52.614;13.500;2023-02-28T04:51:01;55011.03;;;-143.77;76.61
13836;BME280;6988;52.614;13.500;2023-02-28T04:55:53;55025.41;;;-143.77;76.56
13836;BME280;6988;52.614;13.500;2023-02-28T05:00:46;55050.03;;;-143.77;76.78
13836;BME280;6988;52.614;13.500;2023-02-28T05:05:38;55004.88;;;-143.77;77.01
13836;BME280;6988;52.614;13.500;2023-02-28T05:10:30;55015.13;;;-143.77;77.18
13836;BME280;6988;52.614;13.500;2023-02-28T05:15:22;55035.66;;;-143.77;77.20
13836;BME280;6988;52.614;13.500;2023-02-28T05:20:16;55086.97;;;-143.77;77.37
13836;BME280;6988;52.614;13.500;2023-02-28T05:25:12;55000.78;;;-143.77;77.13
13836;BME280;6988;52.614;13.500;2023-02-28T05:30:07;55019.25;;;-143.77;77.09
13836;BME280;6988;52.614;13.500;2023-02-28T05:35:01;55013.09;;;-143.77;77.00
13836;BME280;6988;52.614;13.500;2023-02-28T05:39:54;55029.50;;;-143.77;77.10
13836;BME280;6988;52.614;13.500;2023-02-28T05:44:46;55029.50;;;-143.77;77.36
13836;BME280;6988;52.614;13.500;2023-02-28T05:49:38;55004.88;;;-143.77;77.18
13836;BME280;6988;52.614;13.500;2023-02-28T05:54:30;54996.66;;;-143.77;77.32
13836;BME280;6988;52.614;13.500;2023-02-28T05:59:24;55025.41;;;-143.77;77.27
13836;BME280;6988;52.614;13.500;2023-02-28T06:04:18;55017.19;;;-143.77;77.31
13836;BME280;6988;52.614;13.500;2023-02-28T06:09:10;55047.97;;;-143.77;77.20
13836;BME280;6988;52.614;13.500;2023-02-28T06:14:03;55050.03;;;-143.77;77.43
13836;BME280;6988;52.614;13.500;2023-02-28T06:19:00;55052.09;;;-143.77;77.62
13836;BME280;6988;52.614;13.500;2023-02-28T06:23:53;55015.13;;;-143.77;77.69
13836;BME280;6988;52.614;13.500;2023-02-28T06:28:45;55058.25;;;-143.77;78.15
13836;BME280;6988;52.614;13.500;2023-02-28T06:33:39;55052.09;;;-143.77;78.28
13836;BME280;6988;52.614;13.500;2023-02-28T06:38:33;55000.78;;;-143.77;78.17
13836;BME280;6988;52.614;13.500;2023-02-28T06:43:30;54998.72;;;-143.77;78.38
13836;BME280;6988;52.614;13.500;2023-02-28T06:48:23;55058.25;;;-143.77;78.28
13836;BME280;6988;52.614;13.500;2023-02-28T06:53:15;55013.09;;;-143.77;78.43
13836;BME280;6988;52.614;13.500;2023-02-28T06:58:09;54951.53;;;-143.77;79.82
13836;BME280;6988;52.614;13.500;2023-02-28T07:03:06;54947.41;;;-143.77;81.01
13836;BME280;6988;52.614;13.500;2023-02-28T07:07:58;54928.94;;;-143.77;80.77
13836;BME280;6988;52.614;13.500;2023-02-28T07:12:50;54941.25;;;-143.77;80.88
13836;BME280;6988;52.614;13.500;2023-02-28T07:17:43;54926.91;;;-143.77;79.46
13836;BME280;6988;52.614;13.500;2023-02-28T07:22:35;54885.84;;;-143.77;77.62
13836;BME280;6988;52.614;13.500;2023-02-28T07:27:27;54900.22;;;-143.77;74.64
13836;BME280;6988;52.614;13.500;2023-02-28T07:32:20;54844.81;;;-143.77;74.73
13836;BME280;6988;52.614;13.500;2023-02-28T07:37:13;54830.44;;;-143.77;73.33
13836;BME280;6988;52.614;13.500;2023-02-28T07:42:06;54822.25;;;-143.77;71.79
13836;BME280;6988;52.614;13.500;2023-02-28T07:47:00;54762.72;;;-143.77;68.17
13836;BME280;6988;52.614;13.500;2023-02-28T07:51:52;54729.91;;;-143.77;67.21
13836;BME280;6988;52.614;13.500;2023-02-28T07:56:45;54748.38;;;-143.77;66.52
13836;BME280;6988;52.614;13.500;2023-02-28T08:01:37;54690.91;;;-143.77;65.02
13836;BME280;6988;52.614;13.500;2023-02-28T08:06:32;54713.47;;;-143.77;60.92
13836;BME280;6988;52.614;13.500;2023-02-28T08:11:24;54717.59;;;-143.77;58.37
13836;BME280;6988;52.614;13.500;2023-02-28T08:16:17;54686.81;;;-143.77;59.29
13836;BME280;6988;52.614;13.500;2023-02-28T08:21:12;54697.06;;;-143.77;58.92
13836;BME280;6988;52.614;13.500;2023-02-28T08:26:04;54656.03;;;-143.77;63.10
13836;BME280;6988;52.614;13.500;2023-02-28T08:30:56;54647.81;;;-143.77;56.43
13836;BME280;6988;52.614;13.500;2023-02-28T08:35:53;54619.09;;;-143.77;55.72
13836;BME280;6988;52.614;13.500;2023-02-28T08:40:45;54633.44;;;-143.77;48.62
13836;BME280;6988;52.614;13.500;2023-02-28T08:45:37;54639.59;;;-143.77;50.03
13836;BME280;6988;52.614;13.500;2023-02-28T08:50:28;54569.84;;;-143.77;48.87
13836;BME280;6988;52.614;13.500;2023-02-28T08:55:21;54592.41;;;-143.77;45.40
13836;BME280;6988;52.614;13.500;2023-02-28T09:00:14;54578.03;;;-143.77;48.35
13836;BME280;6988;52.614;13.500;2023-02-28T09:05:08;54571.88;;;-143.77;44.68
13836;BME280;6988;52.614;13.500;2023-02-28T09:09:59;54557.53;;;-143.77;43.11
13836;BME280;6988;52.614;13.500;2023-02-28T09:14:53;54532.91;;;-143.77;39.67
13836;BME280;6988;52.614;13.500;2023-02-28T09:19:47;54582.16;;;-143.77;41.73
13836;BME280;6988;52.614;13.500;2023-02-28T09:24:39;54553.41;;;-143.77;40.53
13836;BME280;6988;52.614;13.500;2023-02-28T09:29:32;54590.34;;;-143.77;39.94
13836;BME280;6988;52.614;13.500;2023-02-28T09:34:26;54598.56;;;-143.77;41.25
13836;BME280;6988;52.614;13.500;2023-02-28T09:39:18;54561.63;;;-143.77;41.95
13836;BME280;6988;52.614;13.500;2023-02-28T09:44:19;54526.75;;;-143.77;39.39
13836;BME280;6988;52.614;13.500;2023-02-28T09:49:16;54532.91;;;-143.77;40.53
13836;BME280;6988;52.614;13.500;2023-02-28T09:54:14;54551.38;;;-143.77;39.40
13836;BME280;6988;52.614;13.500;2023-02-28T09:59:24;54582.16;;;-143.77;40.27
13836;BME280;6988;52.614;13.500;2023-02-28T10:04:39;54569.84;;;-143.77;40.11
13836;BME280;6988;52.614;13.500;2023-02-28T10:09:36;54565.72;;;-143.77;38.79
13836;BME280;6988;52.614;13.500;2023-02-28T10:14:31;54594.47;;;-143.77;41.31
13836;BME280;6988;52.614;13.500;2023-02-28T10:19:30;54549.31;;;-143.77;41.48
13836;BME280;6988;52.614;13.500;2023-02-28T10:24:30;54594.47;;;-143.77;40.18
13836;BME280;6988;52.614;13.500;2023-02-28T10:29:25;54584.19;;;-143.77;38.99
13836;BME280;6988;52.614;13.500;2023-02-28T10:34:17;54573.94;;;-143.77;40.31
13836;BME280;6988;52.614;13.500;2023-02-28T10:39:37;54590.34;;;-143.77;39.71
13836;BME280;6988;52.614;13.500;2023-02-28T10:44:30;54649.88;;;-143.77;40.51
13836;BME280;6988;52.614;13.500;2023-02-28T10:49:25;54619.09;;;-143.77;39.27
13836;BME280;6988;52.614;13.500;2023-02-28T10:54:22;54645.75;;;-143.77;40.83
13836;BME280;6988;52.614;13.500;2023-02-28T10:59:30;54680.66;;;-143.77;40.74
13836;BME280;6988;52.614;13.500;2023-02-28T11:04:35;54697.06;;;-143.77;41.37
13836;BME280;6988;52.614;13.500;2023-02-28T11:09:34;54658.06;;;-143.77;43.02
13836;BME280;6988;52.614;13.500;2023-02-28T11:14:30;54643.72;;;-143.77;42.64
13836;BME280;6988;52.614;13.500;2023-02-28T11:19:26;54688.84;;;-143.77;42.40
13836;BME280;6988;52.614;13.500;2023-02-28T11:24:25;54686.81;;;-143.77;43.72
13836;BME280;6988;52.614;13.500;2023-02-28T11:29:21;54672.44;;;-143.77;41.53
13836;BME280;6988;52.614;13.500;2023-02-28T11:34:26;54680.66;;;-143.77;42.19
13836;BME280;6988;52.614;13.500;2023-02-28T11:39:19;54606.78;;;-143.77;42.48
13836;BME280;6988;52.614;13.500;2023-02-28T11:44:32;54592.41;;;-143.77;40.20
13836;BME280;6988;52.614;13.500;2023-02-28T11:49:38;54569.84;;;-143.77;40.71
13836;BME280;6988;52.614;13.500;2023-02-28T11:55:05;54559.56;;;-143.77;41.64
13836;BME280;6988;52.614;13.500;2023-02-28T12:00:11;54547.25;;;-143.77;40.43
13836;BME280;6988;52.614;13.500;2023-02-28T12:05:24;54537.00;;;-143.77;41.70
13836;BME280;6988;52.614;13.500;2023-02-28T12:10:23;54520.59;;;-143.77;40.61
13836;BME280;6988;52.614;13.500;2023-02-28T12:15:38;54518.53;;;-143.77;37.03
13836;BME280;6988;52.614;13.500;2023-02-28T12:20:41;54512.38;;;-143.77;41.88
13836;BME280;6988;52.614;13.500;2023-02-28T12:25:52;54537.00;;;-143.77;38.95
13836;BME280;6988;52.614;13.500;2023-02-28T12:30:54;54532.91;;;-143.77;39.56
13836;BME280;6988;52.614;13.500;2023-02-28T12:35:54;54485.72;;;-143.77;38.79
13836;BME280;6988;52.614;13.500;2023-02-28T12:40:52;54459.03;;;-143.77;39.55
13836;BME280;6988;52.614;13.500;2023-02-28T12:45:50;54442.63;;;-143.77;39.11
13836;BME280;6988;52.614;13.500;2023-02-28T12:50:43;54426.19;;;-143.77;37.55
13836;BME280;6988;52.614;13.500;2023-02-28T12:55:45;54463.13;;;-143.77;37.37
13836;BME280;6988;52.614;13.500;2023-02-28T13:01:04;54485.72;;;-143.77;37.34
13836;BME280;6988;52.614;13.500;2023-02-28T13:06:32;54475.44;;;-143.77;37.30
13836;BME280;6988;52.614;13.500;2023-02-28T13:11:33;54498.03;;;-143.77;38.35
13836;BME280;6988;52.614;13.500;2023-02-28T13:16:54;54493.91;;;-143.77;38.98
13836;BME280;6988;52.614;13.500;2023-02-28T13:21:47;54493.91;;;-143.77;39.55
13836;BME280;6988;52.614;13.500;2023-02-28T13:27:21;54471.34;;;-143.77;39.19
13836;BME280;6988;52.614;13.500;2023-02-28T13:32:41;54483.66;;;-143.77;37.94
13836;BME280;6988;52.614;13.500;2023-02-28T13:37:36;54524.69;;;-143.77;39.11
13836;BME280;6988;52.614;13.500;2023-02-28T13:42:36;54489.81;;;-143.77;38.69
13836;BME280;6988;52.614;13.500;2023-02-28T13:47:30;54508.28;;;-143.77;38.42
13836;BME280;6988;52.614;13.500;2023-02-28T13:52:24;54502.13;;;-143.77;38.09
13836;BME280;6988;52.614;13.500;2023-02-28T13:57:32;54518.53;;;-143.77;38.95
13836;BME280;6988;52.614;13.500;2023-02-28T14:03:05;54504.19;;;-143.77;39.13
13836;BME280;6988;52.614;13.500;2023-02-28T14:08:05;54487.75;;;-143.77;36.86
13836;BME280;6988;52.614;13.500;2023-02-28T14:13:03;54491.88;;;-143.77;38.99
13836;BME280;6988;52.614;13.500;2023-02-28T14:17:57;54495.97;;;-143.77;38.64
13836;BME280;6988;52.614;13.500;2023-02-28T14:23:00;54506.22;;;-143.77;39.65
13836;BME280;6988;52.614;13.500;2023-02-28T14:28:13;54510.34;;;-143.77;38.06
13836;BME280;6988;52.614;13.500;2023-02-28T14:33:35;54512.38;;;-143.77;38.41
13836;BME280;6988;52.614;13.500;2023-02-28T14:38:36;54526.75;;;-143.77;40.72
13836;BME280;6988;52.614;13.500;2023-02-28T14:43:29;54524.69;;;-143.77;40.74
13836;BME280;6988;52.614;13.500;2023-02-28T14:48:22;54524.69;;;-143.77;38.99
13836;BME280;6988;52.614;13.500;2023-02-28T14:53:20;54555.47;;;-143.77;40.72
13836;BME280;6988;52.614;13.500;2023-02-28T14:58:23;54569.84;;;-143.77;41.79
13836;BME280;6988;52.614;13.500;2023-02-28T15:03:21;54569.84;;;-143.77;41.07
13836;BME280;6988;52.614;13.500;2023-02-28T15:08:16;54545.22;;;-143.77;39.03
13836;BME280;6988;52.614;13.500;2023-02-28T15:13:13;54522.63;;;-143.77;40.28
13836;BME280;6988;52.614;13.500;2023-02-28T15:18:08;54592.41;;;-143.77;41.63
13836;BME280;6988;52.614;13.500;2023-02-28T15:23:05;54596.50;;;-143.77;41.03
13836;BME280;6988;52.614;13.500;2023-02-28T15:27:58;54590.34;;;-143.77;42.27
13836;BME280;6988;52.614;13.500;2023-02-28T15:33:16;54582.16;;;-143.77;43.24
13836;BME280;6988;52.614;13.500;2023-02-28T15:38:17;54637.56;;;-143.77;43.63
13836;BME280;6988;52.614;13.500;2023-02-28T15:43:17;54623.19;;;-143.77;43.67
13836;BME280;6988;52.614;13.500;2023-02-28T15:48:18;54629.34;;;-143.77;43.61
13836;BME280;6988;52.614;13.500;2023-02-28T15:53:16;54670.38;;;-143.77;44.00
13836;BME280;6988;52.614;13.500;2023-02-28T15:58:11;54674.50;;;-143.77;43.67
13836;BME280;6988;52.614;13.500;2023-02-28T16:03:32;54717.59;;;-143.77;45.64
13836;BME280;6988;52.614;13.500;2023-02-28T16:08:26;54711.44;;;-143.77;46.59
13836;BME280;6988;52.614;13.500;2023-02-28T16:13:18;54688.84;;;-143.77;47.15
13836;BME280;6988;52.614;13.500;2023-02-28T16:18:12;54750.41;;;-143.77;48.29
13836;BME280;6988;52.614;13.500;2023-02-28T16:23:05;54723.75;;;-143.77;47.20
13836;BME280;6988;52.614;13.500;2023-02-28T16:27:56;54725.78;;;-143.77;47.11
13836;BME280;6988;52.614;13.500;2023-02-28T16:32:53;54725.78;;;-143.77;48.30
13836;BME280;6988;52.614;13.500;2023-02-28T16:37:45;54744.25;;;-143.77;49.79
13836;BME280;6988;52.614;13.500;2023-02-28T16:42:39;54742.22;;;-143.77;51.09
13836;BME280;6988;52.614;13.500;2023-02-28T16:47:32;54779.16;;;-143.77;50.90
13836;BME280;6988;52.614;13.500;2023-02-28T16:52:23;54789.41;;;-143.77;51.63
13836;BME280;6988;52.614;13.500;2023-02-28T16:57:21;54742.22;;;-143.77;51.69
13836;BME280;6988;52.614;13.500;2023-02-28T17:02:17;54791.47;;;-143.77;53.10
13836;BME280;6988;52.614;13.500;2023-02-28T17:07:12;54773.00;;;-143.77;54.08
13836;BME280;6988;52.614;13.500;2023-02-28T17:12:07;54801.72;;;-143.77;55.34
13836;BME280;6988;52.614;13.500;2023-02-28T17:16:59;54820.19;;;-143.77;56.19
13836;BME280;6988;52.614;13.500;2023-02-28T17:21:52;54791.47;;;-143.77;57.27
13836;BME280;6988;52.614;13.500;2023-02-28T17:26:43;54836.59;;;-143.77;57.36
13836;BME280;6988;52.614;13.500;2023-02-28T17:31:35;54811.97;;;-143.77;57.93
13836;BME280;6988;52.614;13.500;2023-02-28T17:36:29;54834.56;;;-143.77;57.88
13836;BME280;6988;52.614;13.500;2023-02-28T17:41:22;54824.28;;;-143.77;58.47
13836;BME280;6988;52.614;13.500;2023-02-28T17:46:18;54834.56;;;-143.77;59.00
13836;BME280;6988;52.614;13.500;2023-02-28T17:51:12;54857.13;;;-143.77;59.57
13836;BME280;6988;52.614;13.500;2023-02-28T17:56:08;54861.22;;;-143.77;60.35
13836;BME280;6988;52.614;13.500;2023-02-28T18:01:04;54889.97;;;-143.77;60.70
13836;BME280;6988;52.614;13.500;2023-02-28T18:05:55;54873.53;;;-143.77;60.77
13836;BME280;6988;52.614;13.500;2023-02-28T18:10:47;54881.75;;;-143.77;60.95
13836;BME280;6988;52.614;13.500;2023-02-28T18:15:39;54871.50;;;-143.77;61.06
13836;BME280;6988;52.614;13.500;2023-02-28T18:20:33;54859.19;;;-143.77;61.33
13836;BME280;6988;52.614;13.500;2023-02-28T18:25:25;54873.53;;;-143.77;61.62
13836;BME280;6988;52.614;13.500;2023-02-28T18:30:19;54869.44;;;-143.77;61.78
13836;BME280;6988;52.614;13.500;2023-02-28T18:35:10;54873.53;;;-143.77;61.64
13836;BME280;6988;52.614;13.500;2023-02-28T18:40:06;54900.22;;;-143.77;61.86
13836;BME280;6988;52.614;13.500;2023-02-28T18:44:57;54842.75;;;-143.77;61.76
13836;BME280;6988;52.614;13.500;2023-02-28T18:49:49;54885.84;;;-143.77;62.11
13836;BME280;6988;52.614;13.500;2023-02-28T18:54:41;54916.63;;;-143.77;61.66
13836;BME280;6988;52.614;13.500;2023-02-28T18:59:34;54869.44;;;-143.77;61.97
13836;BME280;6988;52.614;13.500;2023-02-28T19:04:26;54902.28;;;-143.77;62.39
13836;BME280;6988;52.614;13.500;2023-02-28T19:09:17;54906.38;;;-143.77;62.38
13836;BME280;6988;52.614;13.500;2023-02-28T19:14:09;54900.22;;;-143.77;62.62
13836;BME280;6988;52.614;13.500;2023-02-28T19:19:02;54935.09;;;-143.77;63.16
13836;BME280;6988;52.614;13.500;2023-02-28T19:23:54;54926.91;;;-143.77;63.57
13836;BME280;6988;52.614;13.500;2023-02-28T19:28:46;54914.59;;;-143.77;63.92
13836;BME280;6988;52.614;13.500;2023-02-28T19:33:38;54906.38;;;-143.77;64.19
13836;BME280;6988;52.614;13.500;2023-02-28T19:38:31;54963.84;;;-143.77;64.30
13836;BME280;6988;52.614;13.500;2023-02-28T19:43:23;54963.84;;;-143.77;64.76
13836;BME280;6988;52.614;13.500;2023-02-28T19:48:15;54939.22;;;-143.77;65.25
13836;BME280;6988;52.614;13.500;2023-02-28T19:53:07;54943.31;;;-143.77;65.38
13836;BME280;6988;52.614;13.500;2023-02-28T19:58:00;54926.91;;;-143.77;66.01
13836;BME280;6988;52.614;13.500;2023-02-28T20:02:51;54928.94;;;-143.77;65.76
13836;BME280;6988;52.614;13.500;2023-02-28T20:07:43;54898.16;;;-143.77;65.57
13836;BME280;6988;52.614;13.500;2023-02-28T20:12:35;54957.69;;;-143.77;65.90
13836;BME280;6988;52.614;13.500;2023-02-28T20:17:28;54922.78;;;-143.77;66.01
13836;BME280;6988;52.614;13.500;2023-02-28T20:22:20;54910.47;;;-143.77;65.85
13836;BME280;6988;52.614;13.500;2023-02-28T20:27:12;54953.56;;;-143.77;66.07
13836;BME280;6988;52.614;13.500;2023-02-28T20:32:04;54896.13;;;-143.77;66.08
13836;BME280;6988;52.614;13.500;2023-02-28T20:36:59;54935.09;;;-143.77;66.57
13836;BME280;6988;52.614;13.500;2023-02-28T20:41:50;54972.03;;;-143.77;66.53
13836;BME280;6988;52.614;13.500;2023-02-28T20:46:42;54957.69;;;-143.77;66.56
13836;BME280;6988;52.614;13.500;2023-02-28T20:51:34;54904.31;;;-143.77;67.18
13836;BME280;6988;52.614;13.500;2023-02-28T20:56:30;54967.94;;;-143.77;67.16
13836;BME280;6988;52.614;13.500;2023-02-28T21:01:24;54967.94;;;-143.77;67.64
13836;BME280;6988;52.614;13.500;2023-02-28T21:06:18;54928.94;;;-143.77;67.76
13836;BME280;6988;52.614;13.500;2023-02-28T21:11:14;54961.78;;;-143.77;67.89
13836;BME280;6988;52.614;13.500;2023-02-28T21:16:11;54947.41;;;-143.77;68.07
13836;BME280;6988;52.614;13.500;2023-02-28T21:21:06;54939.22;;;-143.77;67.82
13836;BME280;6988;52.614;13.500;2023-02-28T21:26:02;54953.56;;;-143.77;68.07
13836;BME280;6988;52.614;13.500;2023-02-28T21:31:00;54949.47;;;-143.77;68.17
13836;BME280;6988;52.614;13.500;2023-02-28T21:36:00;54967.94;;;-143.77;68.03
13836;BME280;6988;52.614;13.500;2023-02-28T21:40:52;54951.53;;;-143.77;68.26
13836;BME280;6988;52.614;13.500;2023-02-28T21:45:44;54945.38;;;-143.77;68.68
13836;BME280;6988;52.614;13.500;2023-02-28T21:50:36;54996.66;;;-143.77;68.76
13836;BME280;6988;52.614;13.500;2023-02-28T21:55:29;54988.47;;;-143.77;68.49
13836;BME280;6988;52.614;13.500;2023-02-28T22:00:21;55050.03;;;-143.77;68.67
13836;BME280;6988;52.614;13.500;2023-02-28T22:05:13;54967.94;;;-143.77;69.55
13836;BME280;6988;52.614;13.500;2023-02-28T22:10:05;54937.16;;;-143.77;69.65
13836;BME280;6988;52.614;13.500;2023-02-28T22:14:58;54984.34;;;-143.77;69.78
13836;BME280;6988;52.614;13.500;2023-02-28T22:19:50;54974.09;;;-143.77;70.08
13836;BME280;6988;52.614;13.500;2023-02-28T22:24:42;54970.00;;;-143.77;70.20
13836;BME280;6988;52.614;13.500;2023-02-28T22:29:34;55021.28;;;-143.77;70.49
13836;BME280;6988;52.614;13.500;2023-02-28T22:34:27;54955.63;;;-143.77;70.54
13836;BME280;6988;52.614;13.500;2023-02-28T22:39:19;54945.38;;;-143.77;71.25
13836;BME280;6988;52.614;13.500;2023-02-28T22:44:11;54963.84;;;-143.77;71.10
13836;BME280;6988;52.614;13.500;2023-02-28T23:04:58;54992.56;;;-143.77;70.25
13836;BME280;6988;52.614;13.500;2023-02-28T23:09:50;55015.13;;;-143.77;71.40
13836;BME280;6988;52.614;13.500;2023-02-28T23:14:44;55000.78;;;-143.77;72.05
13836;BME280;6988;52.614;13.500;2023-02-28T23:19:36;54990.50;;;-143.77;72.18
13836;BME280;6988;52.614;13.500;2023-02-28T23:24:33;54963.84;;;-143.77;72.50
13836;BME280;6988;52.614;13.500;2023-02-28T23:29:26;54992.56;;;-143.77;72.42
13836;BME280;6988;52.614;13.500;2023-02-28T23:34:18;55004.88;;;-143.77;72.74
13836;BME280;6988;52.614;13.500;2023-02-28T23:39:16;54972.03;;;-143.77;72.71
13836;BME280;6988;52.614;13.500;2023-02-28T23:44:10;54972.03;;;-143.77;72.98
13836;BME280;6988;52.614;13.500;2023-02-28T23:49:06;54992.56;;;-143.77;72.83
13836;BME280;6988;52.614;13.500;2023-02-28T23:53:58;55019.25;;;-143.77;72.94
13836;BME280;6988;52.614;13.500;2023-02-28T23:58:54;54994.63;;;-143.77;72.94
